Time;durP1;ratioP1;P1;durP2;ratioP2;P2;SDS_P1;SDS_P2;PMS_P1;PMS_P2;Temp;Humidity;BMP_temperature;BMP_pressure;BME280_temperature;BME280_humidity;BME280_pressure;Samples;Min_cycle;Max_cycle;Signal;HPM_P1;HPM_P2
2023/08/30 00:01:51;;;;;;;7.82;7.00;;;14.80;90.90;;;;;;5054413;28;20032;-53
2023/08/30 00:04:16;;;;;;;9.38;6.93;;;14.90;90.80;;;;;;5034149;28;20377;-53
2023/08/30 00:06:44;;;;;;;7.72;6.95;;;14.90;90.80;;;;;;5052929;28;20038;-59
2023/08/30 00:09:12;;;;;;;8.25;7.03;;;14.80;90.70;;;;;;5065308;28;20039;-49
2023/08/30 00:11:40;;;;;;;8.38;7.57;;;14.90;90.50;;;;;;5055202;28;20024;-50
2023/08/30 00:14:07;;;;;;;9.55;7.28;;;14.80;90.40;;;;;;5070508;28;20380;-52
2023/08/30 00:16:36;;;;;;;9.40;7.82;;;14.80;90.50;;;;;;5023082;28;20893;-51
2023/08/30 00:19:08;;;;;;;7.45;6.75;;;14.80;90.50;;;;;;5051925;28;20029;-51
2023/08/30 00:21:35;;;;;;;9.60;8.18;;;14.80;90.50;;;;;;5029969;28;20034;-49
2023/08/30 00:24:02;;;;;;;8.60;7.70;;;14.80;90.50;;;;;;5052451;28;20438;-53
2023/08/30 00:26:27;;;;;;;8.38;6.43;;;14.80;90.50;;;;;;5067304;28;20040;-54
2023/08/30 00:28:54;;;;;;;8.57;7.78;;;14.80;90.50;;;;;;5046031;28;20029;-54
2023/08/30 00:31:21;;;;;;;8.70;7.78;;;14.90;90.50;;;;;;5047812;28;20054;-53
2023/08/30 00:33:49;;;;;;;8.43;7.63;;;14.80;90.50;;;;;;5048458;28;20620;-51
2023/08/30 00:36:18;;;;;;;9.82;7.82;;;14.70;90.50;;;;;;5049303;28;20039;-53
2023/08/30 00:38:44;;;;;;;;;;;14.70;90.50;;;;;;5053037;28;20079;-54
2023/08/30 00:41:13;;;;;;;9.85;8.85;;;14.70;90.50;;;;;;5056749;28;19963;-53
2023/08/30 00:43:41;;;;;;;9.13;8.23;;;14.70;90.60;;;;;;5050085;28;20032;-51
2023/08/30 00:46:07;;;;;;;8.95;8.05;;;14.70;90.60;;;;;;5038296;28;20052;-51
2023/08/30 00:48:38;;;;;;;8.25;7.45;;;14.70;90.60;;;;;;5063276;28;20067;-52
2023/08/30 00:51:04;;;;;;;8.43;7.63;;;14.70;90.60;;;;;;5046563;28;20048;-54
2023/08/30 00:53:31;;;;;;;8.27;7.47;;;14.60;90.70;;;;;;5027389;28;20025;-55
2023/08/30 00:55:59;;;;;;;8.23;7.38;;;14.70;90.70;;;;;;5054173;28;20024;-51
2023/08/30 00:58:27;;;;;;;8.93;7.47;;;14.60;90.80;;;;;;5063968;28;20056;-54
2023/08/30 01:00:55;;;;;;;7.57;6.88;;;14.60;90.80;;;;;;5066839;28;20024;-49
2023/08/30 01:03:23;;;;;;;9.77;8.20;;;14.70;90.80;;;;;;5041291;28;20548;-49
2023/08/30 01:05:51;;;;;;;9.60;7.90;;;14.60;90.80;;;;;;5072362;28;20025;-54
2023/08/30 01:08:20;;;;;;;8.82;8.02;;;14.60;90.80;;;;;;5039180;28;20021;-51
2023/08/30 01:11:07;;;;;;;8.40;7.25;;;14.60;90.80;;;;;;5019556;28;20036;-54
2023/08/30 01:13:40;;;;;;;9.75;8.73;;;14.60;90.90;;;;;;5073531;28;20499;-53
2023/08/30 01:16:07;;;;;;;12.40;8.30;;;14.50;90.70;;;;;;5018726;28;20487;-48
2023/08/30 01:18:36;;;;;;;9.77;7.90;;;14.50;90.60;;;;;;5048674;28;20041;-50
2023/08/30 01:21:05;;;;;;;;;;;14.40;90.60;;;;;;5040795;28;20036;-50
2023/08/30 01:23:57;;;;;;;8.30;7.50;;;14.40;90.60;;;;;;5037581;28;19917;-51
2023/08/30 01:27:00;;;;;;;8.40;7.50;;;14.40;90.70;;;;;;5039235;28;20084;-52
2023/08/30 01:29:30;;;;;;;8.43;7.63;;;14.40;90.50;;;;;;5045234;28;20117;-53
2023/08/30 01:31:59;;;;;;;7.43;6.63;;;14.40;90.40;;;;;;5049768;28;20535;-50
2023/08/30 01:34:26;;;;;;;7.77;7.03;;;14.40;90.40;;;;;;5050498;28;20127;-52
2023/08/30 01:36:53;;;;;;;10.15;7.63;;;14.50;90.40;;;;;;5036367;28;20176;-51
2023/08/30 01:39:25;;;;;;;9.02;7.45;;;14.50;90.30;;;;;;5044476;28;20041;-54
2023/08/30 01:41:58;;;;;;;10.60;8.77;;;14.50;90.10;;;;;;5047138;28;20113;-53
2023/08/30 01:44:41;;;;;;;9.02;7.55;;;14.50;90.20;;;;;;5045508;28;20379;-51
2023/08/30 01:47:07;;;;;;;10.55;8.15;;;14.50;90.10;;;;;;5047267;28;20036;-51
2023/08/30 01:49:39;;;;;;;8.77;7.60;;;14.50;90.10;;;;;;5059449;28;20452;-51
2023/08/30 01:52:07;;;;;;;7.93;6.95;;;14.40;89.90;;;;;;5023443;28;20143;-52
2023/08/30 01:54:36;;;;;;;8.63;7.72;;;14.40;90.00;;;;;;5027294;28;20397;-51
2023/08/30 01:57:07;;;;;;;8.90;7.03;;;14.40;90.00;;;;;;5052319;28;20100;-53
2023/08/30 01:59:32;;;;;;;8.20;7.03;;;14.40;90.00;;;;;;5056166;28;20124;-48
2023/08/30 02:01:59;;;;;;;14.57;8.00;;;14.40;89.90;;;;;;5046247;28;20721;-50
2023/08/30 02:04:27;;;;;;;8.48;7.57;;;14.40;90.00;;;;;;5066231;28;20067;-54
2023/08/30 02:07:02;;;;;;;9.20;7.97;;;14.40;89.90;;;;;;5067330;28;20051;-53
2023/08/30 02:09:47;;;;;;;8.10;6.97;;;14.40;90.10;;;;;;5015799;28;20041;-50
2023/08/30 02:12:17;;;;;;;9.90;8.90;;;14.40;90.10;;;;;;5060126;28;20041;-51
2023/08/30 02:14:48;;;;;;;9.10;8.20;;;14.30;90.20;;;;;;5058231;28;20039;-55
2023/08/30 02:17:15;;;;;;;12.20;10.05;;;14.30;90.20;;;;;;5032591;28;20037;-52
2023/08/30 02:19:43;;;;;;;9.05;8.15;;;14.30;90.30;;;;;;5049733;28;20106;-51
2023/08/30 02:22:12;;;;;;;12.48;10.45;;;14.30;90.30;;;;;;5046461;28;20429;-51
2023/08/30 02:24:39;;;;;;;8.68;7.80;;;14.30;90.30;;;;;;5041173;28;20025;-53
2023/08/30 02:27:07;;;;;;;9.88;8.98;;;14.40;90.40;;;;;;5049401;28;20043;-51
2023/08/30 02:29:32;;;;;;;9.55;7.80;;;14.30;90.30;;;;;;5072621;28;20028;-53
2023/08/30 02:31:59;;;;;;;10.70;8.20;;;14.30;90.50;;;;;;5046895;28;20467;-48
2023/08/30 02:34:26;;;;;;;8.93;8.02;;;14.30;90.40;;;;;;5036609;28;20035;-54
2023/08/30 02:36:55;;;;;;;11.35;9.27;;;14.30;90.40;;;;;;5049093;28;20032;-49
2023/08/30 02:39:24;;;;;;;9.38;8.32;;;14.30;90.50;;;;;;5050890;28;20053;-53
2023/08/30 02:41:51;;;;;;;11.90;8.38;;;14.30;90.50;;;;;;5058238;28;20052;-53
2023/08/30 02:44:17;;;;;;;10.82;8.60;;;14.30;90.40;;;;;;5069412;28;20021;-51
2023/08/30 02:46:43;;;;;;;9.32;8.43;;;14.20;90.50;;;;;;5066238;28;20036;-50
2023/08/30 02:49:11;;;;;;;9.45;8.52;;;14.20;90.50;;;;;;5042830;28;20025;-52
2023/08/30 02:51:38;;;;;;;10.68;9.55;;;14.20;90.50;;;;;;5062720;28;20063;-49
2023/08/30 02:54:07;;;;;;;10.52;9.52;;;14.20;90.50;;;;;;5069981;28;20150;-51
2023/08/30 02:56:34;;;;;;;12.77;10.05;;;14.20;90.50;;;;;;5065060;28;20037;-51
2023/08/30 02:58:59;;;;;;;11.02;9.27;;;14.10;90.60;;;;;;5064156;28;20037;-51
2023/08/30 03:01:27;;;;;;;11.75;10.55;;;14.10;90.70;;;;;;5066864;28;20032;-54
2023/08/30 03:03:54;;;;;;;10.27;9.27;;;14.10;90.70;;;;;;5032427;28;20018;-49
2023/08/30 03:06:22;;;;;;;11.93;10.68;;;14.00;90.70;;;;;;5049378;28;20047;-53
2023/08/30 03:08:49;;;;;;;11.70;10.57;;;14.00;90.80;;;;;;5038280;28;20037;-51
2023/08/30 03:11:16;;;;;;;11.82;10.63;;;14.00;90.90;;;;;;5032530;28;20037;-52
2023/08/30 03:13:43;;;;;;;12.98;11.68;;;14.00;90.90;;;;;;5066969;28;20040;-52
2023/08/30 03:16:16;;;;;;;12.30;11.18;;;14.00;91.00;;;;;;5020830;28;20108;-52
2023/08/30 03:18:44;;;;;;;11.82;10.63;;;14.00;91.00;;;;;;5012119;28;20047;-53
2023/08/30 03:21:13;;;;;;;13.48;12.13;;;13.90;90.90;;;;;;5044566;28;20032;-51
2023/08/30 03:23:40;;;;;;;12.73;11.43;;;13.90;91.00;;;;;;5054897;28;20544;-52
2023/08/30 03:26:16;;;;;;;12.98;11.77;;;13.90;91.00;;;;;;5046884;28;20040;-50
2023/08/30 03:28:47;;;;;;;14.45;13.07;;;13.90;91.10;;;;;;5031331;28;20049;-47
2023/08/30 03:31:25;;;;;;;16.63;13.45;;;13.90;91.00;;;;;;5030333;28;20051;-52
2023/08/30 03:33:53;;;;;;;17.55;14.50;;;13.80;91.20;;;;;;5072002;28;20021;-52
2023/08/30 03:36:20;;;;;;;14.70;13.18;;;13.80;91.10;;;;;;5061066;28;20087;-50
2023/08/30 03:38:46;;;;;;;15.90;14.32;;;13.70;91.30;;;;;;5071301;28;20052;-53
2023/08/30 03:41:16;;;;;;;15.35;13.82;;;13.70;91.40;;;;;;5041993;28;20498;-50
2023/08/30 03:43:44;;;;;;;15.93;14.43;;;13.70;91.50;;;;;;5060417;28;20123;-49
2023/08/30 03:46:12;;;;;;;15.60;14.20;;;13.80;91.50;;;;;;5061276;28;20534;-52
2023/08/30 03:48:38;;;;;;;16.65;14.90;;;13.70;91.50;;;;;;5071664;28;20020;-54
2023/08/30 03:51:03;;;;;;;16.83;15.13;;;13.70;91.60;;;;;;5046340;28;20489;-53
2023/08/30 03:53:30;;;;;;;17.15;15.48;;;13.70;91.70;;;;;;5070753;28;20462;-53
2023/08/30 03:56:03;;;;;;;19.05;17.25;;;13.70;91.70;;;;;;5032308;28;20041;-51
2023/08/30 03:58:37;;;;;;;18.20;16.27;;;13.70;91.70;;;;;;5050803;28;20027;-50
2023/08/30 04:01:06;;;;;;;18.95;17.15;;;13.60;91.80;;;;;;5056242;28;20036;-48
2023/08/30 04:03:35;;;;;;;17.90;16.13;;;13.60;91.80;;;;;;5046476;28;20132;-48
2023/08/30 04:06:04;;;;;;;18.83;16.92;;;13.50;92.00;;;;;;5048523;28;20067;-52
2023/08/30 04:08:29;;;;;;;17.85;15.20;;;13.50;92.10;;;;;;5043913;28;20031;-52
2023/08/30 04:10:55;;;;;;;18.05;16.20;;;13.60;92.10;;;;;;5042267;28;20029;-48
2023/08/30 04:13:23;;;;;;;19.33;17.42;;;13.60;92.20;;;;;;5062832;28;20040;-47
2023/08/30 04:15:51;;;;;;;18.85;17.05;;;13.50;92.10;;;;;;5064763;28;20037;-46
2023/08/30 04:18:17;;;;;;;21.20;19.08;;;13.50;92.30;;;;;;5065026;28;20436;-50
2023/08/30 04:20:45;;;;;;;17.15;15.45;;;13.50;92.30;;;;;;5048625;28;20028;-51
2023/08/30 04:23:11;;;;;;;19.90;17.98;;;13.50;92.30;;;;;;5034406;28;20045;-52
2023/08/30 04:25:38;;;;;;;20.58;18.58;;;13.50;92.40;;;;;;5004564;28;20124;-53
2023/08/30 04:28:05;;;;;;;20.60;18.60;;;13.50;92.50;;;;;;5051091;28;20047;-52
2023/08/30 04:30:35;;;;;;;20.38;18.38;;;13.60;92.50;;;;;;5051838;28;20032;-52
2023/08/30 04:33:03;;;;;;;;;;;13.50;92.50;;;;;;5062784;28;20024;-52
2023/08/30 04:35:30;;;;;;;20.45;18.08;;;13.60;92.60;;;;;;5062270;28;20035;-51
2023/08/30 04:38:00;;;;;;;20.20;18.23;;;13.50;92.70;;;;;;5041455;28;20033;-47
2023/08/30 04:40:30;;;;;;;20.70;18.70;;;13.60;92.80;;;;;;5050607;28;20083;-46
2023/08/30 04:42:57;;;;;;;22.88;20.35;;;13.60;92.80;;;;;;5043288;28;20041;-50
2023/08/30 04:45:23;;;;;;;20.10;18.20;;;13.60;92.80;;;;;;5036233;28;20043;-51
2023/08/30 04:47:52;;;;;;;20.90;18.85;;;13.60;92.90;;;;;;5067823;28;20074;-48
2023/08/30 04:50:20;;;;;;;21.23;19.20;;;13.70;92.90;;;;;;5056302;28;20036;-50
2023/08/30 04:52:48;;;;;;;20.65;18.50;;;13.60;92.90;;;;;;5031914;28;20302;-51
2023/08/30 04:55:15;;;;;;;22.65;20.35;;;13.70;93.00;;;;;;5064438;28;20473;-50
2023/08/30 04:57:47;;;;;;;23.00;20.80;;;13.70;92.90;;;;;;5052910;28;20055;-53
2023/08/30 05:00:14;;;;;;;23.38;21.17;;;13.70;92.80;;;;;;5050218;28;20043;-53
2023/08/30 05:02:43;;;;;;;22.35;20.02;;;13.70;93.00;;;;;;5059939;28;20374;-54
2023/08/30 05:05:09;;;;;;;21.42;19.25;;;13.70;92.90;;;;;;5061018;28;20075;-50
2023/08/30 05:07:37;;;;;;;22.17;20.02;;;13.80;93.00;;;;;;5039616;28;20033;-52
2023/08/30 05:10:05;;;;;;;22.48;20.38;;;13.80;92.90;;;;;;5067289;28;20103;-53
2023/08/30 05:12:37;;;;;;;20.75;18.67;;;13.70;92.80;;;;;;5047894;28;20497;-51
2023/08/30 05:15:07;;;;;;;21.85;19.75;;;13.80;92.80;;;;;;5048294;28;20037;-50
2023/08/30 05:17:33;;;;;;;23.02;20.52;;;13.70;92.70;;;;;;5064286;28;20036;-49
2023/08/30 05:19:59;;;;;;;20.95;18.80;;;13.70;92.70;;;;;;5060474;28;20035;-50
2023/08/30 05:22:24;;;;;;;21.10;18.90;;;13.70;92.70;;;;;;5053837;28;20029;-52
2023/08/30 05:24:51;;;;;;;21.95;19.65;;;13.70;92.60;;;;;;5049262;28;20021;-47
2023/08/30 05:27:18;;;;;;;22.45;20.17;;;13.70;92.60;;;;;;5038892;28;20071;-52
2023/08/30 05:29:43;;;;;;;21.35;19.15;;;13.70;92.60;;;;;;5061526;28;20021;-50
2023/08/30 05:32:11;;;;;;;22.27;20.00;;;13.70;92.60;;;;;;5061056;28;20032;-52
2023/08/30 05:34:38;;;;;;;23.15;20.23;;;13.70;92.70;;;;;;5012726;28;20454;-49
2023/08/30 05:37:05;;;;;;;19.85;17.75;;;13.80;92.50;;;;;;5039428;28;20048;-49
2023/08/30 05:39:31;;;;;;;19.38;17.42;;;13.70;92.50;;;;;;5067033;28;20048;-50
2023/08/30 05:41:56;;;;;;;20.42;18.40;;;13.70;92.50;;;;;;5032093;28;20047;-47
2023/08/30 05:44:24;;;;;;;22.55;17.65;;;13.80;92.50;;;;;;5066663;28;20032;-52
2023/08/30 05:46:51;;;;;;;20.80;18.40;;;13.80;92.40;;;;;;5050380;28;20485;-47
2023/08/30 05:49:18;;;;;;;20.65;18.63;;;13.70;92.30;;;;;;5052995;28;20036;-48
2023/08/30 05:51:45;;;;;;;20.67;18.67;;;13.70;92.20;;;;;;5061653;28;20025;-52
2023/08/30 05:54:10;;;;;;;22.30;19.90;;;13.70;92.20;;;;;;5050042;28;20457;-53
2023/08/30 05:56:37;;;;;;;21.25;18.90;;;13.60;92.10;;;;;;5017180;28;20048;-50
2023/08/30 05:59:03;;;;;;;20.35;18.35;;;13.60;92.30;;;;;;5071565;28;20028;-51
2023/08/30 06:01:31;;;;;;;19.65;17.20;;;13.70;92.20;;;;;;5062172;28;20024;-51
2023/08/30 06:04:00;;;;;;;19.80;17.70;;;13.70;92.20;;;;;;5040517;28;20139;-50
2023/08/30 06:06:27;;;;;;;18.65;17.02;;;13.70;92.10;;;;;;5053413;28;20025;-48
2023/08/30 06:08:52;;;;;;;19.02;17.15;;;13.70;91.90;;;;;;5041669;28;20032;-49
2023/08/30 06:11:19;;;;;;;18.83;16.88;;;13.70;91.50;;;;;;5057565;28;20493;-51
2023/08/30 06:13:46;;;;;;;17.85;16.15;;;13.60;91.20;;;;;;5069039;28;20036;-49
2023/08/30 06:16:14;;;;;;;16.88;15.18;;;13.60;91.00;;;;;;5068783;28;20102;-51
2023/08/30 06:18:41;;;;;;;18.10;16.30;;;13.60;91.10;;;;;;5069815;28;20032;-51
2023/08/30 06:21:08;;;;;;;17.70;15.80;;;13.60;91.00;;;;;;5055502;28;20062;-51
2023/08/30 06:23:40;;;;;;;16.75;15.07;;;13.70;90.90;;;;;;5066349;28;20028;-52
2023/08/30 06:26:09;;;;;;;17.08;15.30;;;13.60;90.80;;;;;;5056247;28;20115;-50
2023/08/30 06:28:44;;;;;;;17.73;15.73;;;13.70;90.80;;;;;;5047496;28;20040;-47
2023/08/30 06:31:10;;;;;;;16.10;14.60;;;13.70;90.70;;;;;;5044047;28;20048;-50
2023/08/30 06:33:38;;;;;;;17.95;16.15;;;13.70;90.80;;;;;;5054810;28;20481;-51
2023/08/30 06:36:06;;;;;;;16.02;14.43;;;13.80;90.50;;;;;;5047297;28;20044;-48
2023/08/30 06:38:32;;;;;;;15.70;14.20;;;13.80;90.10;;;;;;5034017;28;20497;-51
2023/08/30 06:40:58;;;;;;;14.95;13.27;;;13.80;90.10;;;;;;5007278;28;20038;-47
2023/08/30 06:43:24;;;;;;;14.88;13.48;;;13.80;89.80;;;;;;5069079;28;20067;-48
2023/08/30 06:45:53;;;;;;;15.57;13.85;;;13.90;89.50;;;;;;5041394;28;20052;-48
2023/08/30 06:48:21;;;;;;;15.73;14.02;;;13.90;89.60;;;;;;5044575;28;20025;-46
2023/08/30 06:50:47;;;;;;;14.77;13.38;;;13.90;89.30;;;;;;5055516;28;20036;-52
2023/08/30 06:53:13;;;;;;;16.63;14.05;;;14.00;89.40;;;;;;5060129;28;20119;-52
2023/08/30 06:55:40;;;;;;;15.57;13.77;;;14.00;88.80;;;;;;5071073;28;20397;-51
2023/08/30 06:58:09;;;;;;;22.50;14.05;;;14.10;89.00;;;;;;5056221;28;20064;-53
2023/08/30 07:00:35;;;;;;;15.75;14.10;;;14.10;88.90;;;;;;5040787;28;20029;-53
2023/08/30 07:03:03;;;;;;;15.18;13.65;;;14.10;88.20;;;;;;5071763;28;20025;-52
2023/08/30 07:05:30;;;;;;;14.32;12.60;;;14.20;88.20;;;;;;5051471;28;20039;-52
2023/08/30 07:07:57;;;;;;;15.07;13.57;;;14.20;88.20;;;;;;5052896;28;20029;-52
2023/08/30 07:10:23;;;;;;;14.18;12.43;;;14.20;88.30;;;;;;5068780;28;20028;-49
2023/08/30 07:12:50;;;;;;;13.40;11.95;;;14.30;88.10;;;;;;5057733;28;20475;-52
2023/08/30 07:15:19;;;;;;;14.65;13.15;;;14.40;88.00;;;;;;5026133;28;20069;-51
2023/08/30 07:17:48;;;;;;;14.00;12.38;;;14.40;87.60;;;;;;5069516;28;20043;-55
2023/08/30 07:20:17;;;;;;;13.80;12.40;;;14.40;87.50;;;;;;5050460;28;20043;-49
2023/08/30 07:22:48;;;;;;;13.13;11.93;;;14.40;87.80;;;;;;5061937;28;20126;-50
2023/08/30 07:25:15;;;;;;;13.43;11.65;;;14.50;87.80;;;;;;5066447;28;20036;-50
2023/08/30 07:27:45;;;;;;;11.32;10.15;;;14.60;87.20;;;;;;5065992;28;20685;-51
2023/08/30 07:30:12;;;;;;;12.15;11.05;;;14.60;86.20;;;;;;5057788;28;20141;-54
2023/08/30 07:32:39;;;;;;;11.15;10.02;;;14.70;85.80;;;;;;5053518;28;20094;-51
2023/08/30 07:35:08;;;;;;;11.70;10.50;;;14.70;85.60;;;;;;5067130;28;20021;-53
2023/08/30 07:37:35;;;;;;;13.45;11.23;;;14.80;85.20;;;;;;5069450;28;20461;-48
2023/08/30 07:40:04;;;;;;;12.65;10.05;;;14.90;85.60;;;;;;5036721;28;20156;-55
2023/08/30 07:42:33;;;;;;;11.85;9.82;;;15.10;85.20;;;;;;5052998;28;20393;-49
2023/08/30 07:45:00;;;;;;;11.77;8.68;;;15.30;84.50;;;;;;5035539;28;20025;-52
2023/08/30 07:47:28;;;;;;;9.55;7.97;;;15.40;83.90;;;;;;5065118;28;20428;-54
2023/08/30 07:49:55;;;;;;;9.98;8.95;;;15.70;83.10;;;;;;5038043;28;20481;-50
2023/08/30 07:52:21;;;;;;;9.98;7.93;;;15.90;82.30;;;;;;5056125;28;20450;-52
2023/08/30 07:54:47;;;;;;;9.52;7.25;;;16.00;82.00;;;;;;5056103;28;20055;-53
2023/08/30 07:57:15;;;;;;;9.63;7.20;;;16.30;81.50;;;;;;5049039;28;20068;-49
2023/08/30 07:59:44;;;;;;;8.13;6.57;;;16.40;80.80;;;;;;5043671;28;20111;-52
2023/08/30 08:02:16;;;;;;;8.15;7.28;;;16.60;80.00;;;;;;5056245;28;20032;-52
2023/08/30 08:04:44;;;;;;;8.30;7.00;;;16.70;78.80;;;;;;5063455;28;20108;-48
2023/08/30 08:07:13;;;;;;;7.18;6.45;;;16.90;79.10;;;;;;5058805;28;20207;-54
2023/08/30 08:09:43;;;;;;;8.98;6.88;;;17.10;77.80;;;;;;5040072;28;20037;-54
2023/08/30 08:12:10;;;;;;;8.05;7.15;;;17.40;77.50;;;;;;5053608;28;20425;-54
2023/08/30 08:14:35;;;;;;;8.75;6.93;;;17.80;77.90;;;;;;5064089;28;20033;-52
2023/08/30 08:17:04;;;;;;;8.70;5.97;;;17.90;76.00;;;;;;5055716;28;20035;-50
2023/08/30 08:19:31;;;;;;;6.50;5.82;;;17.80;76.20;;;;;;5031277;28;20013;-50
2023/08/30 08:21:58;;;;;;;14.13;6.60;;;17.80;75.80;;;;;;5013396;28;20029;-49
2023/08/30 08:24:25;;;;;;;7.30;6.03;;;17.90;76.20;;;;;;5039327;28;20579;-52
2023/08/30 08:26:51;;;;;;;9.88;6.63;;;17.90;76.80;;;;;;5048752;28;20032;-52
2023/08/30 08:29:19;;;;;;;8.00;6.82;;;17.70;76.80;;;;;;5067205;28;20024;-50
2023/08/30 08:31:48;;;;;;;8.45;7.63;;;17.70;75.90;;;;;;5054729;28;20043;-54
2023/08/30 08:34:15;;;;;;;10.10;8.23;;;17.60;76.20;;;;;;5046261;28;20366;-51
2023/08/30 08:36:43;;;;;;;10.40;7.38;;;17.60;75.60;;;;;;5068156;28;20031;-53
2023/08/30 08:39:10;;;;;;;9.40;7.30;;;17.50;76.60;;;;;;5048451;28;20047;-52
2023/08/30 08:41:42;;;;;;;8.98;7.15;;;17.80;76.10;;;;;;5067921;28;20036;-51
2023/08/30 08:44:09;;;;;;;10.38;7.60;;;17.90;75.70;;;;;;5033316;28;20044;-52
2023/08/30 08:46:38;;;;;;;9.95;7.28;;;17.80;75.70;;;;;;5036323;28;20026;-53
2023/08/30 08:49:18;;;;;;;6.57;5.75;;;17.70;75.90;;;;;;5013120;28;20021;-51
2023/08/30 08:51:47;;;;;;;8.82;7.15;;;17.90;76.00;;;;;;5064629;28;20028;-51
2023/08/30 08:54:13;;;;;;;8.85;7.40;;;17.80;76.10;;;;;;5052443;28;20037;-55
2023/08/30 08:56:49;;;;;;;10.00;7.32;;;17.60;75.50;;;;;;5044582;28;20151;-55
2023/08/30 08:59:15;;;;;;;9.48;6.97;;;17.60;76.20;;;;;;5060560;28;20047;-56
2023/08/30 09:01:43;;;;;;;9.63;7.43;;;17.60;75.00;;;;;;5066701;28;20028;-50
2023/08/30 09:04:20;;;;;;;8.63;7.00;;;17.60;74.80;;;;;;5051424;28;20124;-54
2023/08/30 09:06:49;;;;;;;7.78;6.93;;;17.50;74.50;;;;;;5070453;28;20484;-55
2023/08/30 09:09:17;;;;;;;10.48;7.50;;;17.50;75.90;;;;;;5043766;28;20044;-50
2023/08/30 09:11:45;;;;;;;9.65;8.02;;;17.40;76.10;;;;;;5050753;28;20150;-50
2023/08/30 09:14:11;;;;;;;8.88;7.63;;;17.30;76.00;;;;;;5047593;28;20086;-56
2023/08/30 09:16:38;;;;;;;8.75;7.85;;;17.20;76.10;;;;;;5046748;28;20373;-51
2023/08/30 09:19:07;;;;;;;9.63;7.75;;;17.10;76.30;;;;;;5047856;28;20461;-52
2023/08/30 09:21:34;;;;;;;9.30;7.15;;;17.20;76.00;;;;;;5060866;28;20040;-54
2023/08/30 09:24:02;;;;;;;11.27;8.25;;;17.30;76.20;;;;;;5067553;28;20091;-56
2023/08/30 09:26:39;;;;;;;10.38;8.82;;;17.20;75.80;;;;;;5051396;28;20086;-52
2023/08/30 09:29:07;;;;;;;9.13;7.60;;;17.30;76.60;;;;;;5061594;28;20016;-54
2023/08/30 09:31:58;;;;;;;11.68;8.32;;;17.40;77.30;;;;;;5054204;28;20062;-51
2023/08/30 09:34:25;;;;;;;14.10;8.77;;;17.60;76.10;;;;;;5069445;28;20037;-56
2023/08/30 09:36:51;;;;;;;9.25;7.75;;;17.60;75.90;;;;;;5016659;28;20105;-55
2023/08/30 09:39:18;;;;;;;9.95;7.85;;;17.70;76.40;;;;;;5026882;28;20057;-52
2023/08/30 09:41:48;;;;;;;10.55;7.82;;;17.60;76.00;;;;;;5066599;28;20459;-55
2023/08/30 09:44:24;;;;;;;8.73;7.80;;;17.70;76.30;;;;;;5066431;28;20033;-54
2023/08/30 09:46:53;;;;;;;9.73;8.00;;;17.70;76.40;;;;;;5068985;28;20044;-56
2023/08/30 09:49:21;;;;;;;9.85;7.55;;;17.70;76.60;;;;;;5009217;28;20129;-54
2023/08/30 09:51:51;;;;;;;11.07;7.67;;;17.70;76.50;;;;;;5044738;28;20063;-56
2023/08/30 09:54:21;;;;;;;9.35;7.72;;;17.60;76.10;;;;;;5042983;28;20755;-54
2023/08/30 09:56:52;;;;;;;8.80;7.85;;;17.70;75.80;;;;;;5063399;28;20041;-56
2023/08/30 09:59:21;;;;;;;7.82;6.82;;;17.70;74.10;;;;;;5054306;28;20048;-53
2023/08/30 10:01:49;;;;;;;9.38;7.28;;;17.60;75.00;;;;;;5069297;28;20613;-52
2023/08/30 10:04:18;;;;;;;11.95;7.90;;;17.50;75.40;;;;;;5050046;28;20590;-55
2023/08/30 10:06:45;;;;;;;9.00;7.60;;;17.50;75.20;;;;;;5064042;28;20047;-54
2023/08/30 10:09:14;;;;;;;8.88;7.20;;;17.40;75.20;;;;;;5041720;28;20040;-51
2023/08/30 10:11:40;;;;;;;9.27;7.57;;;17.40;75.10;;;;;;5055007;28;20055;-57
2023/08/30 10:14:09;;;;;;;10.23;8.90;;;17.50;75.00;;;;;;5033301;28;20034;-56
2023/08/30 10:16:43;;;;;;;11.23;8.45;;;17.50;75.60;;;;;;5047716;28;20040;-55
2023/08/30 10:19:17;;;;;;;10.50;8.48;;;17.40;75.70;;;;;;5046292;28;20044;-56
2023/08/30 10:21:44;;;;;;;9.57;8.57;;;17.50;75.50;;;;;;5046183;28;20066;-55
2023/08/30 10:24:16;;;;;;;9.95;8.80;;;17.60;75.20;;;;;;5033384;28;20470;-54
2023/08/30 10:26:47;;;;;;;10.88;8.60;;;17.40;74.20;;;;;;5048121;28;20044;-56
2023/08/30 10:29:23;;;;;;;11.10;8.88;;;17.50;75.20;;;;;;5046212;28;20450;-49
2023/08/30 10:31:53;;;;;;;11.73;9.93;;;17.50;75.10;;;;;;5047415;28;20068;-53
2023/08/30 10:34:21;;;;;;;12.90;10.10;;;17.50;75.60;;;;;;5049721;28;20052;-56
2023/08/30 10:36:58;;;;;;;11.50;10.30;;;17.50;76.30;;;;;;5063340;28;20102;-56
2023/08/30 10:39:34;;;;;;;11.38;8.85;;;17.50;76.10;;;;;;5046875;28;20050;-56
2023/08/30 10:42:01;;;;;;;11.77;9.73;;;17.60;75.60;;;;;;5057986;28;20111;-57
2023/08/30 10:44:28;;;;;;;10.65;9.15;;;17.50;75.00;;;;;;5070204;28;20115;-55
2023/08/30 10:46:54;;;;;;;12.77;10.63;;;17.60;75.60;;;;;;5066173;28;20789;-55
2023/08/30 10:49:23;;;;;;;12.18;10.88;;;17.80;76.10;;;;;;5030191;28;20411;-56
2023/08/30 10:52:01;;;;;;;9.95;8.95;;;17.90;75.30;;;;;;5041469;28;20405;-57
2023/08/30 10:54:42;;;;;;;12.70;10.75;;;18.20;75.70;;;;;;5035921;28;20028;-52
2023/08/30 10:57:19;;;;;;;10.45;9.43;;;18.60;75.00;;;;;;5054947;28;20501;-56
2023/08/30 11:00:07;;;;;;;12.50;11.15;;;19.00;73.70;;;;;;5051988;28;20033;-57
2023/08/30 11:02:36;;;;;;;16.02;10.95;;;19.30;71.70;;;;;;5069402;28;20064;-52
2023/08/30 11:05:03;;;;;;;12.18;9.73;;;19.30;71.00;;;;;;5032590;28;20113;-55
2023/08/30 11:07:29;;;;;;;12.95;10.27;;;19.40;71.30;;;;;;5033161;28;20584;-55
2023/08/30 11:09:57;;;;;;;11.27;9.15;;;19.40;71.10;;;;;;5063351;28;20128;-56
2023/08/30 11:12:30;;;;;;;12.15;9.32;;;19.50;72.00;;;;;;5053095;28;20032;-56
2023/08/30 11:15:00;;;;;;;12.05;10.65;;;19.70;71.80;;;;;;5047446;28;20033;-54
2023/08/30 11:17:27;;;;;;;10.30;9.27;;;19.80;70.40;;;;;;5066521;28;20036;-55
2023/08/30 11:20:21;;;;;;;12.30;10.98;;;19.90;70.00;;;;;;5029865;28;20574;-57
2023/08/30 11:22:49;;;;;;;11.07;9.98;;;20.00;70.20;;;;;;5068178;28;20094;-54
2023/08/30 11:25:17;;;;;;;12.82;11.43;;;20.20;69.40;;;;;;5062032;28;20035;-53
2023/08/30 11:27:43;;;;;;;11.65;10.45;;;19.80;68.80;;;;;;5034495;28;20038;-56
2023/08/30 11:30:10;;;;;;;11.93;10.73;;;19.90;69.10;;;;;;5031384;28;20025;-53
2023/08/30 11:32:39;;;;;;;10.48;9.38;;;19.70;69.30;;;;;;5026449;28;20101;-55
2023/08/30 11:35:05;;;;;;;10.95;9.80;;;19.60;69.30;;;;;;5042652;28;20033;-56
2023/08/30 11:37:33;;;;;;;10.27;9.27;;;19.50;69.40;;;;;;5039499;28;20036;-55
2023/08/30 11:40:01;;;;;;;13.40;10.65;;;19.60;70.20;;;;;;5053345;28;20369;-54
2023/08/30 11:42:29;;;;;;;;;;;19.60;70.10;;;;;;5066917;28;20048;-55
2023/08/30 11:44:59;;;;;;;9.38;8.18;;;19.50;68.90;;;;;;5035248;28;19999;-56
2023/08/30 11:47:28;;;;;;;11.65;9.45;;;19.50;69.90;;;;;;5040811;28;20509;-56
2023/08/30 11:49:57;;;;;;;12.25;9.85;;;19.40;70.00;;;;;;5030314;28;20101;-56
2023/08/30 11:52:23;;;;;;;;;;;19.30;69.80;;;;;;4996902;28;20052;-55
2023/08/30 11:54:50;;;;;;;9.48;7.55;;;19.10;70.50;;;;;;5056310;28;19908;-56
2023/08/30 11:57:16;;;;;;;9.90;8.48;;;19.10;71.50;;;;;;5054702;28;20047;-55
2023/08/30 11:59:43;;;;;;;11.90;9.45;;;18.90;71.40;;;;;;5030190;28;20034;-57
2023/08/30 12:02:12;;;;;;;11.70;9.27;;;18.80;70.90;;;;;;5057642;28;20061;-54
2023/08/30 12:04:45;;;;;;;9.45;8.38;;;18.60;71.50;;;;;;5052934;28;20036;-57
2023/08/30 12:07:22;;;;;;;9.50;8.20;;;18.50;71.30;;;;;;5023488;28;20350;-55
2023/08/30 12:09:51;;;;;;;13.38;8.57;;;18.40;71.70;;;;;;5027752;28;20017;-56
2023/08/30 12:12:20;;;;;;;15.20;9.82;;;18.40;72.40;;;;;;5042415;28;20036;-56
2023/08/30 12:14:54;;;;;;;;;;;18.30;73.10;;;;;;5051777;28;20525;-55
2023/08/30 12:17:21;;;;;;;7.60;6.70;;;18.30;72.50;;;;;;5055913;28;19917;-54
2023/08/30 12:20:03;;;;;;;8.52;7.07;;;18.20;72.50;;;;;;5052601;28;20422;-53
2023/08/30 12:22:42;;;;;;;9.82;8.00;;;18.10;73.20;;;;;;5066369;28;20016;-56
2023/08/30 12:25:27;;;;;;;9.07;7.30;;;17.90;72.90;;;;;;5055007;28;20028;-57
2023/08/30 12:27:54;;;;;;;11.73;8.40;;;17.70;72.80;;;;;;5045754;28;20461;-55
2023/08/30 12:30:22;;;;;;;10.40;8.75;;;17.60;73.50;;;;;;5066813;28;20079;-57
2023/08/30 12:32:48;;;;;;;12.50;8.65;;;17.40;74.00;;;;;;5064034;28;20032;-53
2023/08/30 12:35:14;;;;;;;10.63;8.23;;;17.40;74.40;;;;;;5030262;28;20113;-57
2023/08/30 12:37:40;;;;;;;10.73;9.43;;;17.40;74.70;;;;;;5043390;28;20037;-56
2023/08/30 12:40:07;;;;;;;9.13;8.15;;;17.30;75.10;;;;;;5063963;28;20516;-55
2023/08/30 12:42:34;;;;;;;9.73;8.63;;;17.40;74.90;;;;;;5060458;28;20032;-56
2023/08/30 12:45:01;;;;;;;10.30;8.60;;;17.40;75.20;;;;;;5063683;28;20048;-57
2023/08/30 12:47:28;;;;;;;11.38;8.65;;;17.20;74.40;;;;;;5067444;28;20051;-55